Time;durP1;ratioP1;P1;durP2;ratioP2;P2;SDS_P1;SDS_P2;PMS_P1;PMS_P2;Temp;Humidity;BMP_temperature;BMP_pressure;BME280_temperature;BME280_humidity;BME280_pressure;Samples;Min_cycle;Max_cycle;Signal;HPM_P1;HPM_P2
2021/04/06 00:00:09;;;;;;;21.03;19.20;;;1.40;99.90;;;;;;5095467;28;20455;-73
2021/04/06 00:02:40;;;;;;;21.50;19.63;;;1.50;99.90;;;;;;5090568;28;20459;-74
2021/04/06 00:05:09;;;;;;;22.17;20.23;;;1.50;99.90;;;;;;5091649;28;20483;-73
2021/04/06 00:07:38;;;;;;;21.50;19.93;;;1.60;99.90;;;;;;5088715;28;20468;-74
2021/04/06 00:10:12;;;;;;;21.80;19.73;;;1.60;99.90;;;;;;5094028;28;20514;-74
2021/04/06 00:12:39;;;;;;;21.90;19.93;;;1.50;99.90;;;;;;5086131;28;20513;-73
2021/04/06 00:15:09;;;;;;;21.87;20.10;;;1.60;99.90;;;;;;5089999;28;20491;-73
2021/04/06 00:17:37;;;;;;;21.87;20.10;;;1.60;99.90;;;;;;5089994;28;20468;-73
2021/04/06 00:20:06;;;;;;;20.93;19.20;;;1.60;99.90;;;;;;5085735;28;20505;-73
2021/04/06 00:22:34;;;;;;;26.97;20.83;;;1.60;99.90;;;;;;5081560;28;20491;-73
2021/04/06 00:25:02;;;;;;;21.87;20.10;;;1.70;99.90;;;;;;5083114;28;20464;-74
2021/04/06 00:27:31;;;;;;;21.63;20.00;;;1.60;99.90;;;;;;5097450;28;20469;-73
2021/04/06 00:30:04;;;;;;;20.43;18.80;;;1.60;99.90;;;;;;5092108;28;20449;-73
2021/04/06 00:32:31;;;;;;;19.93;18.63;;;1.60;99.90;;;;;;5085448;28;20822;-73
2021/04/06 00:35:00;;;;;;;20.10;18.80;;;1.60;99.90;;;;;;5081191;28;20466;-73
2021/04/06 00:37:28;;;;;;;24.13;19.33;;;1.60;99.90;;;;;;5094054;28;20473;-73
2021/04/06 00:39:59;;;;;;;21.60;19.57;;;1.60;99.90;;;;;;5082134;28;20460;-73
2021/04/06 00:42:30;;;;;;;21.33;19.10;;;1.60;99.90;;;;;;5090568;28;20481;-73
2021/04/06 00:44:58;;;;;;;21.30;19.53;;;1.60;99.90;;;;;;5085781;28;20473;-73
2021/04/06 00:47:27;;;;;;;21.53;19.30;;;1.60;99.90;;;;;;5090403;28;20947;-73
2021/04/06 00:49:56;;;;;;;17.43;16.53;;;1.70;99.90;;;;;;5084748;28;20482;-73
2021/04/06 00:52:22;;;;;;;18.43;17.37;;;1.60;99.90;;;;;;5088680;28;20462;-72
2021/04/06 00:54:53;;;;;;;19.73;17.00;;;1.50;99.90;;;;;;5096113;28;20531;-73
2021/04/06 00:57:22;;;;;;;18.27;16.90;;;1.50;99.90;;;;;;5103089;28;20457;-74
2021/04/06 01:00:10;;;;;;;17.57;15.93;;;1.50;99.90;;;;;;5087226;28;20871;-73
2021/04/06 01:02:37;;;;;;;17.67;16.03;;;1.60;99.90;;;;;;5090699;28;20502;-73
2021/04/06 01:05:06;;;;;;;18.23;16.33;;;1.60;99.90;;;;;;5085176;28;20829;-73
2021/04/06 01:07:35;;;;;;;17.40;15.93;;;1.60;99.90;;;;;;5086761;28;20485;-72
2021/04/06 01:10:04;;;;;;;18.07;15.87;;;1.60;99.90;;;;;;5089441;28;20462;-72
2021/04/06 01:12:31;;;;;;;20.33;16.50;;;1.50;99.90;;;;;;5090031;28;20465;-72
2021/04/06 01:14:59;;;;;;;19.23;16.80;;;1.40;99.90;;;;;;5096095;28;20822;-73
2021/04/06 01:17:28;;;;;;;18.43;17.33;;;1.40;99.90;;;;;;5094584;28;20496;-72
2021/04/06 01:19:58;;;;;;;17.73;16.40;;;1.30;99.90;;;;;;5082723;28;20669;-73
2021/04/06 01:22:27;;;;;;;21.10;18.93;;;1.20;99.90;;;;;;5090722;28;20495;-73
2021/04/06 01:24:54;;;;;;;18.53;17.13;;;1.20;99.90;;;;;;5095199;28;20602;-73
2021/04/06 01:27:21;;;;;;;18.50;17.13;;;1.20;99.90;;;;;;5097543;28;21078;-74
2021/04/06 01:29:49;;;;;;;27.27;19.83;;;1.20;99.90;;;;;;5093731;28;20963;-74
2021/04/06 01:32:17;;;;;;;20.60;18.43;;;1.30;99.90;;;;;;5079773;28;20560;-72
2021/04/06 01:34:44;;;;;;;30.23;21.37;;;1.40;99.90;;;;;;5096036;28;20484;-74
2021/04/06 01:37:10;;;;;;;21.03;18.93;;;1.30;99.90;;;;;;5086971;28;20469;-73
2021/04/06 01:39:38;;;;;;;18.87;17.57;;;1.30;99.90;;;;;;5096140;28;21042;-73
2021/04/06 01:42:08;;;;;;;21.70;18.73;;;1.30;99.90;;;;;;5096023;28;20488;-73
2021/04/06 01:44:38;;;;;;;21.33;19.27;;;1.30;99.90;;;;;;5088951;28;20462;-74
2021/04/06 01:47:05;;;;;;;25.37;19.67;;;1.30;99.90;;;;;;5094881;28;20472;-72
2021/04/06 01:49:32;;;;;;;19.23;17.63;;;1.20;99.90;;;;;;5085754;28;20462;-73
2021/04/06 01:52:01;;;;;;;18.27;17.00;;;1.20;99.90;;;;;;5092840;28;20457;-73
2021/04/06 01:54:27;;;;;;;22.77;19.60;;;1.10;99.90;;;;;;5096581;28;20473;-72
2021/04/06 01:56:57;;;;;;;28.07;18.10;;;1.10;99.90;;;;;;5086115;28;20465;-72
2021/04/06 01:59:30;;;;;;;21.27;17.83;;;1.10;99.90;;;;;;5095567;28;20467;-72
2021/04/06 02:01:59;;;;;;;19.27;17.67;;;1.10;99.90;;;;;;5088200;28;20496;-74
2021/04/06 02:04:27;;;;;;;19.97;18.17;;;1.00;99.90;;;;;;5091624;28;20462;-75
2021/04/06 02:06:55;;;;;;;21.67;19.20;;;1.00;99.90;;;;;;5090845;28;20837;-74
2021/04/06 02:09:22;;;;;;;22.67;17.90;;;0.90;99.90;;;;;;5096878;28;20834;-74
2021/04/06 02:11:48;;;;;;;17.63;16.33;;;0.90;99.90;;;;;;5081312;28;20455;-73
2021/04/06 02:14:17;;;;;;;17.50;16.20;;;0.90;99.90;;;;;;5095620;28;20468;-73
2021/04/06 02:16:46;;;;;;;18.93;17.33;;;0.90;99.90;;;;;;5088661;28;20467;-74
2021/04/06 02:19:25;;;;;;;19.97;18.20;;;0.80;99.90;;;;;;5094633;28;20469;-73
2021/04/06 02:21:53;;;;;;;22.90;19.23;;;0.80;99.90;;;;;;5093521;28;20481;-74
2021/04/06 02:24:29;;;;;;;18.50;16.80;;;0.90;99.90;;;;;;5093148;28;20877;-74
2021/04/06 02:27:05;;;;;;;20.70;18.60;;;1.00;99.90;;;;;;5090429;28;20489;-74
2021/04/06 02:29:36;;;;;;;18.70;17.17;;;1.00;99.90;;;;;;5086740;28;20456;-73
2021/04/06 02:32:07;;;;;;;19.33;17.73;;;1.00;99.90;;;;;;5087925;28;21073;-74
2021/04/06 02:34:36;;;;;;;23.90;18.80;;;1.10;99.90;;;;;;5096659;28;20512;-74
2021/04/06 02:37:03;;;;;;;19.40;17.93;;;1.20;99.90;;;;;;5083532;28;20461;-73
2021/04/06 02:39:30;;;;;;;20.23;18.30;;;1.20;99.90;;;;;;5082720;28;20956;-72
2021/04/06 02:41:56;;;;;;;24.63;18.70;;;1.30;99.90;;;;;;5094038;28;20497;-72
2021/04/06 02:44:23;;;;;;;22.40;20.10;;;1.30;99.90;;;;;;5087074;28;20989;-72
2021/04/06 02:46:51;;;;;;;28.57;19.47;;;1.40;99.90;;;;;;5084650;28;20479;-73
2021/04/06 02:49:19;;;;;;;24.13;20.20;;;1.30;99.90;;;;;;5095576;28;20455;-72
2021/04/06 02:51:46;;;;;;;23.77;20.00;;;1.40;99.90;;;;;;5095809;28;20453;-72
2021/04/06 02:54:15;;;;;;;23.47;21.00;;;1.30;99.90;;;;;;5083557;28;20978;-72
2021/04/06 02:56:41;;;;;;;21.73;19.80;;;1.40;99.90;;;;;;5091420;28;20461;-71
2021/04/06 02:59:15;;;;;;;22.63;20.63;;;1.30;99.90;;;;;;5090182;28;20478;-71
2021/04/06 03:01:42;;;;;;;22.60;20.60;;;1.30;99.90;;;;;;5078644;28;20494;-72
2021/04/06 03:04:23;;;;;;;21.63;20.03;;;1.40;99.90;;;;;;5089500;28;20457;-72
2021/04/06 03:06:52;;;;;;;24.80;22.20;;;1.40;99.90;;;;;;5083142;28;20464;-71
2021/04/06 03:09:20;;;;;;;26.73;23.90;;;1.40;99.90;;;;;;5092943;28;20461;-73
2021/04/06 03:11:47;;;;;;;25.23;22.50;;;1.30;99.90;;;;;;5085743;28;20464;-74
2021/04/06 03:14:14;;;;;;;25.83;23.10;;;1.30;99.90;;;;;;5096776;28;21750;-72
2021/04/06 03:16:42;;;;;;;24.47;22.37;;;1.20;99.90;;;;;;5095956;28;20460;-71
2021/04/06 03:19:09;;;;;;;25.00;22.63;;;1.20;99.90;;;;;;5095585;28;20912;-71
2021/04/06 03:21:36;;;;;;;24.90;21.67;;;1.20;99.90;;;;;;5084869;28;20488;-71
2021/04/06 03:24:04;;;;;;;28.40;24.23;;;1.10;99.90;;;;;;5096361;28;20456;-71
2021/04/06 03:26:32;;;;;;;31.70;23.10;;;1.20;99.90;;;;;;5092984;28;20461;-71
2021/04/06 03:29:00;;;;;;;23.47;21.60;;;1.20;99.90;;;;;;5081995;28;20528;-71
2021/04/06 03:31:28;;;;;;;24.70;22.40;;;1.10;99.90;;;;;;5083924;28;20957;-72
2021/04/06 03:33:56;;;;;;;26.53;23.80;;;1.10;99.90;;;;;;5088381;28;20465;-72
2021/04/06 03:36:25;;;;;;;32.30;23.57;;;1.00;99.90;;;;;;5088988;28;20813;-72
2021/04/06 03:38:54;;;;;;;27.03;24.37;;;1.00;99.90;;;;;;5094939;28;20471;-72
2021/04/06 03:41:24;;;;;;;28.83;25.23;;;1.00;99.90;;;;;;5088247;28;20486;-72
2021/04/06 03:43:52;;;;;;;26.00;23.57;;;0.90;99.90;;;;;;5091229;28;20470;-73
2021/04/06 03:46:25;;;;;;;25.10;22.60;;;0.80;99.90;;;;;;5097436;28;20514;-73
2021/04/06 03:48:52;;;;;;;27.23;21.80;;;0.80;99.90;;;;;;5090156;28;20967;-73
2021/04/06 03:51:27;;;;;;;23.20;20.73;;;0.80;99.90;;;;;;5089978;28;20476;-73
2021/04/06 03:53:55;;;;;;;25.33;21.20;;;0.70;99.90;;;;;;5086772;28;20501;-73
2021/04/06 03:56:29;;;;;;;26.53;20.33;;;0.70;99.90;;;;;;5093313;28;20456;-73
2021/04/06 03:58:57;;;;;;;30.83;21.40;;;0.60;99.90;;;;;;5081123;28;20822;-73
2021/04/06 04:01:23;;;;;;;22.00;19.77;;;0.60;99.90;;;;;;5084851;28;21155;-73
2021/04/06 04:03:53;;;;;;;25.40;18.57;;;0.60;99.90;;;;;;5091479;28;20740;-72
2021/04/06 04:06:24;;;;;;;24.40;17.93;;;0.50;99.90;;;;;;5083099;28;20555;-72
2021/04/06 04:08:51;;;;;;;20.07;17.77;;;0.50;99.90;;;;;;5092034;28;20503;-72
2021/04/06 04:11:19;;;;;;;26.90;17.50;;;0.40;99.90;;;;;;5092357;28;20469;-72
2021/04/06 04:13:46;;;;;;;20.67;17.03;;;0.40;99.90;;;;;;5093327;28;20781;-72
2021/04/06 04:16:12;;;;;;;17.23;15.73;;;0.40;99.90;;;;;;5078402;28;20531;-72
2021/04/06 04:18:39;;;;;;;17.70;16.10;;;0.40;99.90;;;;;;5089829;28;20489;-71
2021/04/06 04:21:10;;;;;;;17.17;15.60;;;0.40;99.90;;;;;;5082489;28;20489;-71
2021/04/06 04:23:37;;;;;;;17.50;15.87;;;0.30;99.90;;;;;;5091431;28;20896;-72
2021/04/06 04:26:03;;;;;;;19.27;17.23;;;0.30;99.90;;;;;;5091951;28;20569;-72
2021/04/06 04:28:30;;;;;;;17.10;15.47;;;0.20;99.90;;;;;;5080634;28;20499;-71
2021/04/06 04:30:59;;;;;;;17.87;16.17;;;0.20;99.90;;;;;;5091234;28;20474;-72
2021/04/06 04:33:26;;;;;;;16.53;14.87;;;0.30;99.90;;;;;;5086867;28;20489;-73
2021/04/06 04:35:52;;;;;;;15.57;14.40;;;0.20;99.90;;;;;;5093349;28;20460;-72
2021/04/06 04:38:19;;;;;;;16.47;14.47;;;0.20;99.90;;;;;;5088343;28;20471;-71
2021/04/06 04:40:46;;;;;;;24.43;15.80;;;0.30;99.90;;;;;;5089506;28;20550;-72
2021/04/06 04:43:13;;;;;;;15.97;14.40;;;0.30;99.90;;;;;;5092297;28;20473;-72
2021/04/06 04:45:41;;;;;;;16.53;14.90;;;0.30;99.90;;;;;;5097874;28;20514;-71
2021/04/06 04:48:08;;;;;;;16.10;14.53;;;0.30;99.90;;;;;;5085077;28;20467;-71
2021/04/06 04:50:36;;;;;;;21.73;14.47;;;0.30;99.90;;;;;;5095083;28;20832;-71
2021/04/06 04:53:02;;;;;;;20.40;14.67;;;0.30;99.90;;;;;;5088119;28;20470;-70
2021/04/06 04:55:28;;;;;;;15.47;14.27;;;0.30;99.90;;;;;;5084558;28;21037;-71
2021/04/06 04:57:56;;;;;;;15.77;14.70;;;0.30;99.90;;;;;;5089761;28;20454;-71
2021/04/06 05:00:23;;;;;;;15.30;13.93;;;0.30;99.90;;;;;;5080478;28;20551;-70
2021/04/06 05:02:50;;;;;;;16.87;15.10;;;0.30;99.90;;;;;;5085111;28;20505;-70
2021/04/06 05:05:18;;;;;;;18.30;16.50;;;0.30;99.90;;;;;;5085176;28;20920;-70
2021/04/06 05:07:45;;;;;;;19.43;15.40;;;0.30;99.90;;;;;;5096119;28;20481;-70
2021/04/06 05:10:13;;;;;;;20.80;17.67;;;0.30;99.90;;;;;;5084623;28;20898;-70
2021/04/06 05:12:40;;;;;;;15.03;14.13;;;0.20;99.90;;;;;;5086744;28;20492;-71
2021/04/06 05:15:08;;;;;;;15.20;13.80;;;0.20;99.90;;;;;;5084220;28;20462;-70
2021/04/06 05:17:35;;;;;;;17.43;15.87;;;0.20;99.90;;;;;;5083461;28;20464;-72
2021/04/06 05:20:05;;;;;;;16.27;14.67;;;0.20;99.90;;;;;;5086023;28;20514;-71
2021/04/06 05:22:31;;;;;;;16.07;14.77;;;0.10;99.90;;;;;;5084041;28;20504;-70
2021/04/06 05:24:58;;;;;;;16.10;15.10;;;0.10;99.90;;;;;;5075624;28;20472;-69
2021/04/06 05:27:24;;;;;;;16.87;15.27;;;0.10;99.90;;;;;;5079913;28;20486;-72
2021/04/06 05:29:51;;;;;;;17.67;15.00;;;0.10;99.90;;;;;;5077752;28;20465;-70
2021/04/06 05:32:17;;;;;;;17.00;15.57;;;0.20;99.90;;;;;;5085124;28;20547;-70
2021/04/06 05:34:43;;;;;;;18.03;16.47;;;0.30;99.90;;;;;;5082373;28;20802;-69
2021/04/06 05:37:11;;;;;;;16.80;15.23;;;0.40;99.90;;;;;;5089797;28;20496;-70
2021/04/06 05:39:37;;;;;;;17.33;16.03;;;0.40;99.90;;;;;;5086442;28;20463;-70
2021/04/06 05:42:04;;;;;;;19.27;17.27;;;0.50;99.90;;;;;;5083744;28;20574;-71
2021/04/06 05:44:32;;;;;;;18.87;17.50;;;0.60;99.90;;;;;;5090474;28;20467;-71
2021/04/06 05:47:00;;;;;;;21.07;19.27;;;0.60;99.90;;;;;;5089329;28;20461;-72
2021/04/06 05:49:31;;;;;;;21.27;19.13;;;0.80;99.90;;;;;;5074837;28;20493;-71
2021/04/06 05:51:57;;;;;;;22.53;19.60;;;0.90;99.90;;;;;;5077734;28;20470;-71
2021/04/06 05:54:26;;;;;;;24.30;19.60;;;0.90;99.90;;;;;;5076825;28;21315;-71
2021/04/06 05:56:53;;;;;;;21.17;19.50;;;1.00;99.90;;;;;;5081369;28;20490;-71
2021/04/06 05:59:20;;;;;;;21.13;19.40;;;0.90;99.90;;;;;;5076280;28;20810;-72
2021/04/06 06:01:47;;;;;;;22.27;20.47;;;1.00;99.90;;;;;;5084658;28;20542;-71
2021/04/06 06:04:14;;;;;;;22.43;20.60;;;1.00;99.90;;;;;;5078315;28;21269;-71
2021/04/06 06:06:41;;;;;;;22.60;20.80;;;0.90;99.90;;;;;;5073353;28;20937;-70
2021/04/06 06:09:08;;;;;;;23.03;20.93;;;0.90;99.90;;;;;;5075255;28;20965;-71
2021/04/06 06:11:55;;;;;;;20.93;19.53;;;0.90;99.90;;;;;;5073488;28;20454;-72
2021/04/06 06:14:33;;;;;;;21.37;19.50;;;0.90;99.90;;;;;;5076431;28;22519;-71
2021/04/06 06:17:12;;;;;;;23.87;21.87;;;1.00;99.90;;;;;;5082178;28;20470;-70
2021/04/06 06:19:39;;;;;;;23.60;21.47;;;1.00;99.90;;;;;;5075485;28;20504;-71
2021/04/06 06:22:11;;;;;;;22.90;21.17;;;1.00;99.90;;;;;;5079938;28;20564;-73
2021/04/06 06:24:40;;;;;;;24.13;22.13;;;1.00;99.90;;;;;;5075007;28;20507;-71
2021/04/06 06:27:22;;;;;;;23.23;21.10;;;1.10;99.90;;;;;;5078807;28;20480;-71
2021/04/06 06:29:50;;;;;;;24.13;21.67;;;1.20;99.90;;;;;;5076337;28;20492;-72
2021/04/06 06:32:20;;;;;;;22.83;21.00;;;1.30;99.90;;;;;;5078563;28;21050;-72
2021/04/06 06:34:47;;;;;;;26.43;23.00;;;1.30;99.90;;;;;;5078666;28;20458;-73
2021/04/06 06:37:16;;;;;;;24.73;22.40;;;1.30;99.90;;;;;;5083196;28;20838;-73
2021/04/06 06:39:58;;;;;;;23.10;21.50;;;1.40;99.90;;;;;;5086970;28;20457;-74
2021/04/06 06:42:29;;;;;;;25.03;22.60;;;1.40;99.90;;;;;;5092008;28;21119;-72
2021/04/06 06:44:55;;;;;;;22.27;20.57;;;1.40;99.90;;;;;;5091304;28;20466;-73
2021/04/06 06:47:23;;;;;;;35.63;23.27;;;1.40;99.90;;;;;;5080965;28;20495;-73
2021/04/06 06:49:52;;;;;;;23.33;21.40;;;1.60;99.90;;;;;;5078940;28;20512;-72
2021/04/06 06:52:33;;;;;;;23.27;20.97;;;1.70;99.90;;;;;;5090235;28;20458;-72
2021/04/06 06:55:14;;;;;;;23.03;20.97;;;1.70;99.90;;;;;;5085555;28;20463;-73
2021/04/06 06:57:41;;;;;;;22.80;21.07;;;1.70;99.90;;;;;;5093200;28;21389;-74
2021/04/06 07:00:20;;;;;;;23.83;19.77;;;1.80;99.90;;;;;;5085648;28;20472;-74
2021/04/06 07:02:47;;;;;;;22.27;20.23;;;2.00;99.90;;;;;;5078703;28;20534;-73
2021/04/06 07:05:17;;;;;;;21.43;19.63;;;1.90;99.90;;;;;;5085968;28;20757;-73
2021/04/06 07:07:54;;;;;;;21.83;19.30;;;2.00;99.90;;;;;;5092771;28;21043;-73
2021/04/06 07:10:22;;;;;;;20.00;18.20;;;2.10;99.90;;;;;;5082183;28;20830;-73
2021/04/06 07:12:56;;;;;;;19.43;17.60;;;2.20;99.90;;;;;;5084429;28;20580;-73
2021/04/06 07:15:22;;;;;;;19.70;17.50;;;2.30;99.90;;;;;;5078052;28;20463;-74
2021/04/06 07:17:52;;;;;;;18.17;16.97;;;2.30;99.90;;;;;;5086741;28;20465;-72
2021/04/06 07:20:21;;;;;;;19.37;17.70;;;2.30;99.90;;;;;;5081469;28;20465;-73
2021/04/06 07:22:51;;;;;;;19.10;17.53;;;2.40;99.90;;;;;;5081476;28;20508;-73
2021/04/06 07:25:18;;;;;;;21.70;18.73;;;2.30;99.90;;;;;;5082680;28;20459;-73
2021/04/06 07:27:46;;;;;;;19.70;17.60;;;2.50;99.90;;;;;;5089374;28;21267;-74
2021/04/06 07:30:14;;;;;;;20.90;18.73;;;2.60;99.90;;;;;;5076141;28;20500;-73
2021/04/06 07:32:42;;;;;;;22.37;18.20;;;2.90;99.90;;;;;;5079928;28;20488;-74
2021/04/06 07:35:09;;;;;;;18.70;17.30;;;3.10;99.90;;;;;;5078795;28;21221;-74
2021/04/06 07:37:46;;;;;;;20.03;18.00;;;3.20;99.90;;;;;;5085597;28;20458;-72
2021/04/06 07:40:15;;;;;;;18.33;16.80;;;3.20;99.90;;;;;;5089503;28;21047;-74
2021/04/06 07:42:44;;;;;;;19.50;17.63;;;3.20;99.90;;;;;;5086807;28;20911;-72
2021/04/06 07:45:44;;;;;;;19.80;18.47;;;3.10;99.90;;;;;;5079815;28;21060;-73
2021/04/06 07:48:26;;;;;;;20.77;19.07;;;3.20;99.90;;;;;;5084675;28;20468;-74
2021/04/06 07:50:53;;;;;;;19.33;17.47;;;3.00;99.90;;;;;;5072085;28;20473;-73
2021/04/06 07:53:25;;;;;;;19.43;17.60;;;2.90;99.90;;;;;;5082484;28;20537;-74
2021/04/06 07:55:53;;;;;;;19.23;17.80;;;3.00;99.90;;;;;;5082230;28;20462;-73
2021/04/06 07:58:45;;;;;;;20.10;18.57;;;3.20;99.90;;;;;;5075556;28;20472;-74
2021/04/06 08:01:16;;;;;;;19.00;17.80;;;3.30;99.90;;;;;;5076428;28;20818;-72
2021/04/06 08:04:06;;;;;;;19.23;17.60;;;3.30;99.90;;;;;;5086322;28;20516;-72
2021/04/06 08:06:46;;;;;;;19.80;18.20;;;3.30;99.90;;;;;;5081205;28;20466;-74
2021/04/06 08:09:43;;;;;;;19.93;18.43;;;3.40;99.90;;;;;;5086398;28;20551;-73
2021/04/06 08:12:11;;;;;;;20.33;18.60;;;3.40;99.90;;;;;;5086744;28;20987;-73
2021/04/06 08:14:39;;;;;;;19.67;18.37;;;3.40;99.90;;;;;;5086755;28;20466;-74
2021/04/06 08:17:42;;;;;;;20.00;18.43;;;3.40;99.90;;;;;;5078285;28;20467;-72
2021/04/06 08:20:25;;;;;;;19.93;18.57;;;3.30;99.90;;;;;;5084214;28;20462;-73
2021/04/06 08:22:54;;;;;;;20.37;18.97;;;3.30;99.90;;;;;;5094632;28;21018;-74
2021/04/06 08:25:51;;;;;;;19.63;18.23;;;3.50;99.90;;;;;;5078739;28;20470;-73
2021/04/06 08:28:37;;;;;;;18.83;17.70;;;3.80;99.90;;;;;;5078215;28;21329;-73
2021/04/06 08:31:24;;;;;;;18.10;16.80;;;3.90;99.90;;;;;;5088854;28;20457;-73
2021/04/06 08:33:51;;;;;;;19.00;17.70;;;4.00;99.90;;;;;;5076105;28;20459;-73
2021/04/06 08:36:26;;;;;;;18.70;17.30;;;3.90;99.90;;;;;;5076680;28;20505;-71
2021/04/06 08:38:54;;;;;;;17.43;16.50;;;3.90;99.90;;;;;;5078261;28;20560;-72
2021/04/06 08:41:36;;;;;;;18.97;17.47;;;3.90;99.90;;;;;;5082497;28;20461;-73
2021/04/06 08:44:06;;;;;;;19.23;17.70;;;4.00;99.90;;;;;;5080672;28;20471;-73
2021/04/06 08:46:47;;;;;;;18.10;17.00;;;3.90;99.90;;;;;;5086214;28;20848;-73
2021/04/06 08:49:17;;;;;;;19.87;18.13;;;4.00;99.90;;;;;;5075988;28;20458;-73
2021/04/06 08:51:45;;;;;;;18.70;17.60;;;4.10;99.90;;;;;;5089441;28;21356;-72
2021/04/06 08:54:15;;;;;;;18.73;17.53;;;3.90;99.90;;;;;;5090563;28;20457;-73
2021/04/06 08:56:43;;;;;;;19.30;18.00;;;3.80;99.90;;;;;;5080421;28;20462;-73
2021/04/06 08:59:14;;;;;;;18.60;17.23;;;3.70;99.90;;;;;;5089381;28;20536;-73
2021/04/06 09:01:41;;;;;;;19.70;18.20;;;4.10;99.90;;;;;;5079058;28;20489;-74
2021/04/06 09:04:13;;;;;;;18.47;17.47;;;4.50;99.90;;;;;;5078994;28;20550;-73
2021/04/06 09:06:40;;;;;;;19.30;18.10;;;4.70;99.90;;;;;;5079455;28;20470;-73
2021/04/06 09:09:17;;;;;;;18.50;17.30;;;5.10;99.90;;;;;;5078705;28;20464;-73
2021/04/06 09:11:45;;;;;;;19.60;17.90;;;5.20;99.90;;;;;;5081905;28;20462;-74
2021/04/06 09:14:12;;;;;;;17.90;16.80;;;5.20;99.90;;;;;;5084657;28;20472;-75
2021/04/06 09:16:39;;;;;;;17.23;16.13;;;5.20;99.90;;;;;;5084589;28;21067;-72
2021/04/06 09:19:09;;;;;;;18.43;16.80;;;5.40;99.90;;;;;;5091631;28;20467;-74
2021/04/06 09:21:37;;;;;;;17.30;15.90;;;5.90;99.90;;;;;;5088096;28;20538;-75
2021/04/06 09:24:07;;;;;;;17.53;16.30;;;6.30;99.90;;;;;;5084323;28;20511;-75
2021/04/06 09:26:35;;;;;;;17.47;16.27;;;6.60;99.90;;;;;;5089955;28;20465;-75
2021/04/06 09:29:05;;;;;;;18.63;16.67;;;6.70;99.90;;;;;;5082671;28;20514;-73
2021/04/06 09:31:32;;;;;;;17.43;16.30;;;6.40;99.90;;;;;;5088503;28;20495;-74
2021/04/06 09:34:05;;;;;;;17.37;16.03;;;6.80;99.90;;;;;;5085450;28;20471;-76
2021/04/06 09:36:31;;;;;;;17.37;16.30;;;6.70;99.90;;;;;;5091200;28;20914;-73
2021/04/06 09:38:58;;;;;;;17.37;16.27;;;6.60;99.90;;;;;;5087447;28;20469;-76
2021/04/06 09:41:29;;;;;;;15.77;14.87;;;6.30;99.90;;;;;;5094399;28;20463;-75
2021/04/06 09:43:57;;;;;;;18.47;16.57;;;5.80;99.90;;;;;;5087219;28;20634;-73
2021/04/06 09:46:33;;;;;;;22.90;21.30;;;4.90;99.90;;;;;;5089865;28;20534;-71
2021/04/06 09:49:00;;;;;;;22.00;20.60;;;4.00;99.90;;;;;;5094740;28;20461;-70
2021/04/06 09:51:27;;;;;;;27.20;25.00;;;3.30;99.90;;;;;;5094289;28;20522;-71
2021/04/06 09:53:53;;;;;;;27.50;25.33;;;2.60;99.90;;;;;;5090131;28;20464;-73
2021/04/06 09:56:20;;;;;;;25.30;23.50;;;2.20;99.90;;;;;;5087064;28;20458;-73
2021/04/06 09:58:47;;;;;;;24.07;22.27;;;2.30;99.90;;;;;;5095598;28;20459;-73
2021/04/06 10:01:20;;;;;;;23.40;21.80;;;3.00;99.90;;;;;;5083482;28;20473;-73
2021/04/06 10:03:49;;;;;;;22.40;20.90;;;4.00;99.90;;;;;;5082958;28;20469;-74
2021/04/06 10:06:16;;;;;;;22.23;20.20;;;4.60;99.90;;;;;;5079758;28;20489;-74
2021/04/06 10:08:42;;;;;;;21.33;19.73;;;5.20;99.90;;;;;;5093132;28;21174;-74
2021/04/06 10:11:10;;;;;;;21.70;19.90;;;5.70;99.90;;;;;;5094528;28;20468;-74
2021/04/06 10:13:38;;;;;;;16.50;15.40;;;5.90;99.90;;;;;;5093492;28;20461;-74
2021/04/06 10:16:10;;;;;;;18.13;16.80;;;6.10;99.90;;;;;;5083074;28;21066;-73
2021/04/06 10:18:44;;;;;;;17.07;15.70;;;6.40;99.90;;;;;;5084603;28;20960;-74
2021/04/06 10:21:24;;;;;;;18.03;16.40;;;6.50;99.90;;;;;;5084959;28;20546;-74
2021/04/06 10:23:59;;;;;;;18.00;16.57;;;6.60;99.90;;;;;;5088648;28;20531;-73
2021/04/06 10:26:26;;;;;;;16.70;15.50;;;6.30;99.90;;;;;;5077183;28;20451;-73
2021/04/06 10:29:05;;;;;;;18.27;16.50;;;6.90;99.90;;;;;;5084259;28;20481;-73
2021/04/06 10:31:59;;;;;;;17.27;15.97;;;7.30;99.90;;;;;;5079400;28;20997;-73
2021/04/06 10:34:26;;;;;;;18.47;16.60;;;7.50;99.90;;;;;;5074648;28;20489;-73
2021/04/06 10:36:57;;;;;;;18.30;17.13;;;6.70;99.90;;;;;;5093217;28;20466;-73
2021/04/06 10:39:35;;;;;;;19.23;18.03;;;5.10;99.90;;;;;;5083015;28;20462;-73
2021/04/06 10:42:02;;;;;;;21.30;18.67;;;4.30;99.90;;;;;;5091661;28;20486;-73
2021/04/06 10:44:29;;;;;;;19.07;17.90;;;4.30;99.90;;;;;;5089563;28;20948;-73
2021/04/06 10:46:56;;;;;;;21.33;19.53;;;4.40;99.90;;;;;;5086748;28;21289;-73
2021/04/06 10:49:23;;;;;;;19.73;18.13;;;4.40;99.90;;;;;;5094353;28;20462;-73
2021/04/06 10:51:54;;;;;;;20.27;19.00;;;4.30;99.90;;;;;;5085888;28;20472;-73
2021/04/06 10:54:21;;;;;;;19.90;18.47;;;4.20;99.90;;;;;;5093167;28;20573;-73
2021/04/06 10:56:50;;;;;;;20.30;18.50;;;4.10;99.90;;;;;;5080132;28;20449;-73
2021/04/06 10:59:26;;;;;;;21.17;19.80;;;3.70;99.90;;;;;;5094807;28;20472;-73
2021/04/06 11:01:53;;;;;;;22.03;20.53;;;3.10;99.90;;;;;;5086180;28;20491;-73
2021/04/06 11:04:22;;;;;;;21.37;19.63;;;2.70;99.90;;;;;;5091755;28;20460;-72
2021/04/06 11:06:52;;;;;;;17.30;16.20;;;2.40;99.90;;;;;;5088644;28;20492;-74
2021/04/06 11:09:22;;;;;;;22.13;20.63;;;1.40;99.90;;;;;;5086212;28;20460;-73
2021/04/06 11:11:50;;;;;;;16.27;15.27;;;0.70;99.90;;;;;;5087145;28;20876;-73
2021/04/06 11:14:19;;;;;;;13.27;12.67;;;0.40;99.90;;;;;;5089141;28;20471;-73
2021/04/06 11:16:47;;;;;;;8.37;7.97;;;0.20;99.90;;;;;;5086974;28;20472;-73
2021/04/06 11:19:16;;;;;;;8.80;8.13;;;0.20;99.90;;;;;;5091020;28;20507;-73
2021/04/06 11:21:44;;;;;;;9.87;7.93;;;0.20;99.90;;;;;;5093719;28;20498;-73
2021/04/06 11:24:14;;;;;;;8.60;8.10;;;0.30;99.90;;;;;;5095734;28;20578;-72
2021/04/06 11:26:40;;;;;;;9.47;8.80;;;0.30;99.90;;;;;;5080513;28;20474;-72
2021/04/06 11:29:09;;;;;;;9.70;8.80;;;0.40;99.90;;;;;;5090216;28;21304;-71
2021/04/06 11:31:37;;;;;;;10.63;9.80;;;0.60;99.90;;;;;;5080356;28;20523;-73
2021/04/06 11:34:04;;;;;;;12.73;9.53;;;0.80;99.90;;;;;;5083829;28;20648;-72
2021/04/06 11:36:30;;;;;;;10.90;10.20;;;1.10;99.90;;;;;;5092118;28;20489;-71
2021/04/06 11:38:57;;;;;;;16.27;10.47;;;1.80;99.90;;;;;;5083268;28;20470;-76
2021/04/06 11:41:24;;;;;;;9.30;8.47;;;2.60;99.90;;;;;;5085931;28;21032;-73
2021/04/06 11:43:54;;;;;;;8.17;7.07;;;3.30;99.90;;;;;;5062319;28;20473;-75
2021/04/06 11:46:20;;;;;;;7.57;6.87;;;4.00;99.90;;;;;;5086194;28;20549;-74
2021/04/06 11:48:48;;;;;;;7.30;6.53;;;4.70;99.90;;;;;;5081432;28;20972;-73
2021/04/06 11:51:16;;;;;;;6.87;6.27;;;5.00;99.90;;;;;;5084836;28;20465;-72
2021/04/06 11:53:43;;;;;;;6.93;6.10;;;5.30;99.90;;;;;;5087629;28;20550;-70
2021/04/06 11:56:09;;;;;;;5.93;5.63;;;5.90;99.90;;;;;;5087494;28;20472;-72
2021/04/06 11:58:37;;;;;;;10.10;6.20;;;5.90;99.90;;;;;;5075556;28;20466;-72
2021/04/06 12:01:04;;;;;;;8.20;6.63;;;5.80;99.90;;;;;;5089044;28;21058;-70
2021/04/06 12:03:31;;;;;;;7.27;6.87;;;6.00;99.90;;;;;;5077354;28;20786;-71
2021/04/06 12:05:57;;;;;;;9.10;7.50;;;5.70;99.90;;;;;;5089747;28;20465;-71
2021/04/06 12:08:23;;;;;;;8.70;8.00;;;5.90;99.90;;;;;;5075767;28;20473;-72
2021/04/06 12:10:50;;;;;;;10.17;9.53;;;6.20;99.90;;;;;;5089378;28;20466;-71
2021/04/06 12:13:16;;;;;;;11.13;10.33;;;6.30;99.90;;;;;;5086198;28;20462;-72
2021/04/06 12:15:44;;;;;;;9.23;8.70;;;5.70;99.90;;;;;;5080865;28;20465;-71
2021/04/06 12:18:11;;;;;;;12.33;11.07;;;5.40;99.90;;;;;;5091151;28;20457;-71
2021/04/06 12:20:37;;;;;;;11.70;10.70;;;5.40;99.90;;;;;;5089320;28;20878;-72
2021/04/06 12:23:04;;;;;;;13.40;12.80;;;5.60;99.90;;;;;;5056386;28;20494;-72
2021/04/06 12:25:30;;;;;;;13.63;12.93;;;5.90;99.90;;;;;;5084574;28;20459;-71
2021/04/06 12:27:57;;;;;;;14.70;13.90;;;5.60;99.90;;;;;;5085998;28;20501;-71
2021/04/06 12:30:24;;;;;;;15.27;14.57;;;6.30;99.90;;;;;;5091431;28;20472;-72
2021/04/06 12:32:52;;;;;;;15.20;14.40;;;6.10;99.90;;;;;;5087610;28;20544;-71
2021/04/06 12:35:19;;;;;;;16.00;14.70;;;6.10;99.90;;;;;;5084597;28;20479;-72
2021/04/06 12:37:45;;;;;;;15.87;15.07;;;6.50;99.90;;;;;;5093025;28;20461;-72
2021/04/06 12:40:12;;;;;;;16.20;15.10;;;6.70;99.90;;;;;;5081719;28;20462;-72
2021/04/06 12:42:40;;;;;;;17.03;15.93;;;7.10;99.90;;;;;;5081779;28;20486;-72
2021/04/06 12:45:09;;;;;;;17.30;16.10;;;7.20;99.90;;;;;;5080318;28;20460;-71
2021/04/06 12:47:36;;;;;;;16.53;15.50;;;7.60;99.90;;;;;;5083732;28;20542;-72
2021/04/06 12:50:04;;;;;;;17.33;16.00;;;8.10;99.90;;;;;;5076429;28;20502;-72